createdAt,value
2017-08-18T00:00:03.333Z,14.5
2017-08-18T00:15:03.073Z,14.5
2017-08-18T00:30:03.259Z,14.5
2017-08-18T00:45:03.071Z,14.5
2017-08-18T01:00:03.100Z,14.4
2017-08-18T01:15:03.737Z,14.4
2017-08-18T01:30:06.253Z,14.4
2017-08-18T01:45:03.308Z,14.4
2017-08-18T02:00:03.082Z,14.4
2017-08-18T02:15:02.837Z,14.4
2017-08-18T02:30:04.142Z,14.4
2017-08-18T02:45:03.336Z,14.4
2017-08-18T03:00:03.499Z,14.4
2017-08-18T03:15:03.475Z,14.4
2017-08-18T03:30:05.249Z,14.4
2017-08-18T03:45:03.227Z,14.4
2017-08-18T04:00:03.122Z,14.4
2017-08-18T04:15:03.091Z,14.4
2017-08-18T04:30:16.340Z,14.4
2017-08-18T04:45:03.154Z,14.4
2017-08-18T05:00:03.385Z,14.4
2017-08-18T05:15:04.159Z,14.4
2017-08-18T05:30:06.599Z,14.4
2017-08-18T05:45:03.410Z,14.4
2017-08-18T06:00:11.076Z,14.4
2017-08-18T06:15:03.271Z,14.4
2017-08-18T06:30:03.774Z,14.4
2017-08-18T06:45:03.755Z,14.4
2017-08-18T07:02:04.411Z,14.5
2017-08-18T07:15:04.838Z,14.5
2017-08-18T07:30:05.152Z,14.6
2017-08-18T07:45:03.005Z,14.6
2017-08-18T08:00:02.959Z,14.6
2017-08-18T08:15:02.733Z,14.7
2017-08-18T08:30:04.981Z,14.7
2017-08-18T08:45:02.782Z,14.8
2017-08-18T09:00:03.587Z,14.8
2017-08-18T09:15:03.366Z,14.9
2017-08-18T09:30:03.054Z,14.9
2017-08-18T09:45:02.675Z,14.9
2017-08-18T10:00:03.761Z,15.1
2017-08-18T10:30:29.734Z,15.1
2017-08-18T10:45:03.338Z,15.2
2017-08-18T11:00:03.156Z,15.2
2017-08-18T11:15:02.737Z,15.3
2017-08-18T11:30:03.370Z,15.3
2017-08-18T11:45:02.952Z,15.4
2017-08-18T12:00:02.587Z,15.4
2017-08-18T12:15:03.265Z,15.5
2017-08-18T12:30:02.937Z,15.6
2017-08-18T12:45:03.482Z,15.6
2017-08-18T13:00:03.099Z,15.6
2017-08-18T13:15:02.694Z,15.7
2017-08-18T13:30:03.333Z,15.7
2017-08-18T13:45:02.902Z,15.8
2017-08-18T14:00:02.744Z,15.8
2017-08-18T14:15:02.791Z,15.8
2017-08-18T14:30:03.811Z,15.8
2017-08-18T14:45:03.365Z,15.9
2017-08-18T15:00:03.073Z,15.9
2017-08-18T15:15:02.685Z,15.9
2017-08-18T15:30:03.384Z,15.9
2017-08-18T15:45:02.986Z,15.9
2017-08-18T16:00:02.554Z,15.9
2017-08-18T16:15:03.159Z,15.9
2017-08-18T16:30:02.839Z,15.9
2017-08-18T16:45:03.403Z,15.8
2017-08-18T17:00:03.013Z,15.8
2017-08-18T17:15:02.602Z,15.8
2017-08-18T17:30:03.279Z,15.7
2017-08-18T17:45:02.833Z,15.6
2017-08-18T18:00:03.415Z,15.6
2017-08-18T18:15:03.089Z,15.5
2017-08-18T18:30:02.899Z,15.4
2017-08-18T18:45:03.477Z,15.4
2017-08-18T19:00:03.119Z,15.3
2017-08-18T19:15:02.700Z,15.3
2017-08-18T19:30:03.351Z,15.2
2017-08-18T19:45:02.962Z,15.2
2017-08-18T20:00:02.528Z,15.1
2017-08-18T21:15:03.393Z,14.9
2017-08-18T21:30:03.097Z,14.9
2017-08-18T21:45:02.663Z,14.9
2017-08-18T22:00:04.122Z,14.8
2017-08-18T22:15:02.889Z,14.8
2017-08-18T22:30:02.566Z,14.8
2017-08-18T22:45:03.199Z,14.8
2017-08-18T23:00:02.771Z,14.8
2017-08-18T23:15:03.354Z,14.8
2017-08-18T23:30:03.013Z,14.8
2017-08-18T23:45:02.661Z,14.8
